Time;durP1;ratioP1;P1;durP2;ratioP2;P2;SDS_P1;SDS_P2;PMS_P1;PMS_P2;Temp;Humidity;BMP_temperature;BMP_pressure;BME280_temperature;BME280_humidity;BME280_pressure;Samples;Min_cycle;Max_cycle;Signal;HPM_P1;HPM_P2
2023/07/06 00:01:00;;;;;;;11.87;6.13;;;;;;;;;;5054771;28;20859;-77
2023/07/06 00:03:27;;;;;;;10.57;5.90;;;;;;;;;;5071982;28;20431;-77
2023/07/06 00:05:53;;;;;;;12.30;6.38;;;12.20;99.90;;;;;;5080454;28;20425;-77
2023/07/06 00:08:19;;;;;;;12.27;6.53;;;;;;;;;;5089619;28;20414;-78
2023/07/06 00:10:46;;;;;;;12.55;6.72;;;11.80;99.90;;;;;;5075057;28;20480;-78
2023/07/06 00:13:12;;;;;;;12.40;6.47;;;;;;;;;;5070494;28;20444;-79
2023/07/06 00:15:42;;;;;;;12.90;7.45;;;12.10;99.90;;;;;;5061328;28;20914;-79
2023/07/06 00:18:10;;;;;;;12.63;7.68;;;12.30;99.90;;;;;;5082520;28;20450;-78
2023/07/06 00:20:39;;;;;;;12.98;7.00;;;12.00;99.90;;;;;;5072896;28;20415;-78
2023/07/06 00:23:08;;;;;;;13.57;7.55;;;12.10;99.90;;;;;;5091280;28;20784;-79
2023/07/06 00:25:34;;;;;;;12.35;7.60;;;;;;;;;;5089900;28;21012;-78
2023/07/06 00:28:04;;;;;;;12.68;7.43;;;12.20;99.90;;;;;;5090103;28;20554;-77
2023/07/06 00:30:40;;;;;;;10.85;7.63;;;12.00;99.90;;;;;;5071466;28;20446;-78
2023/07/06 00:33:11;;;;;;;12.95;7.63;;;;;;;;;;5069929;28;20435;-77
2023/07/06 00:35:40;;;;;;;18.08;8.15;;;12.10;99.90;;;;;;5071313;28;20728;-77
2023/07/06 00:38:11;;;;;;;13.20;8.18;;;;;;;;;;5054709;28;20435;-78
2023/07/06 00:40:43;;;;;;;12.82;8.15;;;11.80;99.90;;;;;;5071093;28;20454;-77
2023/07/06 00:43:20;;;;;;;14.13;8.38;;;12.10;99.90;;;;;;5073510;28;20498;-78
2023/07/06 00:45:48;;;;;;;17.80;9.10;;;;;;;;;;5070316;28;20443;-78
2023/07/06 00:48:18;;;;;;;20.35;9.65;;;12.00;99.90;;;;;;5081555;28;20420;-78
2023/07/06 00:50:44;;;;;;;15.35;9.20;;;;;;;;;;5074606;28;20414;-78
2023/07/06 00:53:13;;;;;;;14.00;8.27;;;;;;;;;;5074143;28;20970;-78
2023/07/06 00:55:43;;;;;;;17.27;9.27;;;;;;;;;;5070295;28;20479;-78
2023/07/06 00:58:18;;;;;;;16.15;9.10;;;12.30;99.90;;;;;;5054721;28;20486;-78
2023/07/06 01:00:44;;;;;;;14.73;9.18;;;;;;;;;;5053238;28;20415;-78
2023/07/06 01:03:11;;;;;;;15.88;9.20;;;12.20;99.90;;;;;;5073978;28;20438;-78
2023/07/06 01:05:39;;;;;;;16.58;9.63;;;12.00;99.90;;;;;;5061341;28;20420;-78
2023/07/06 01:08:13;;;;;;;15.07;9.43;;;;;;;;;;5070707;28;20431;-78
2023/07/06 01:10:40;;;;;;;18.10;10.10;;;12.10;99.90;;;;;;5073745;28;20423;-78
2023/07/06 01:13:07;;;;;;;16.45;10.30;;;;;;;;;;5085837;28;20421;-78
2023/07/06 01:15:41;;;;;;;16.90;10.00;;;12.50;99.90;;;;;;5048706;28;20532;-78
2023/07/06 01:18:16;;;;;;;14.52;9.85;;;;;;;;;;5084447;28;20414;-79
2023/07/06 01:20:53;;;;;;;19.08;10.50;;;12.10;99.90;;;;;;5073459;28;20393;-78
2023/07/06 01:23:31;;;;;;;16.83;9.70;;;;;;;;;;5070001;28;20423;-78
2023/07/06 01:26:28;;;;;;;19.75;10.38;;;12.30;99.90;;;;;;5070048;28;20902;-78
2023/07/06 01:29:03;;;;;;;16.50;9.80;;;;;;;;;;5061759;28;20418;-79
2023/07/06 01:31:52;;;;;;;17.40;10.83;;;;;;;;;;5072593;28;21002;-78
2023/07/06 01:34:25;;;;;;;19.98;10.48;;;12.20;99.90;;;;;;5080008;28;20425;-78
2023/07/06 01:37:18;;;;;;;18.58;10.93;;;12.20;99.90;;;;;;5073811;28;20489;-78
2023/07/06 01:39:44;;;;;;;18.08;10.85;;;;;;;;;;5070089;28;20970;-77
2023/07/06 01:42:13;;;;;;;17.40;11.10;;;12.00;99.90;;;;;;5070040;28;20481;-78
2023/07/06 01:44:46;;;;;;;18.83;11.60;;;12.00;99.90;;;;;;5060266;28;20446;-78
2023/07/06 01:47:14;;;;;;;23.25;12.15;;;12.20;99.90;;;;;;5053200;28;20466;-78
2023/07/06 01:49:41;;;;;;;21.50;12.38;;;;;;;;;;5075953;28;20498;-78
2023/07/06 01:52:07;;;;;;;23.80;12.23;;;;;;;;;;5080682;28;20428;-78
2023/07/06 01:54:37;;;;;;;24.48;12.70;;;;;;;;;;5090269;28;20449;-78
2023/07/06 01:57:07;;;;;;;22.13;12.13;;;12.30;99.90;;;;;;5090296;28;20401;-78
2023/07/06 01:59:37;;;;;;;21.58;12.65;;;12.40;99.90;;;;;;5071012;28;20420;-78
2023/07/06 02:02:07;;;;;;;18.90;12.40;;;;;;;;;;5069731;28;20424;-79
2023/07/06 02:04:35;;;;;;;24.07;12.60;;;12.20;99.90;;;;;;5053256;28;20415;-79
2023/07/06 02:07:02;;;;;;;20.15;12.90;;;;;;;;;;5073556;28;20423;-78
2023/07/06 02:09:28;;;;;;;23.33;13.32;;;12.00;99.90;;;;;;5069988;28;20491;-78
2023/07/06 02:11:54;;;;;;;21.80;12.20;;;12.40;99.90;;;;;;5062525;28;20502;-78
2023/07/06 02:14:21;;;;;;;20.65;12.10;;;11.90;99.90;;;;;;5057891;28;20588;-78
2023/07/06 02:16:50;;;;;;;22.87;12.83;;;;;;;;;;5093276;28;20394;-78
2023/07/06 02:19:23;;;;;;;19.33;12.10;;;12.00;99.90;;;;;;5067181;28;20456;-78
2023/07/06 02:21:49;;;;;;;24.08;12.13;;;;;;;;;;5083925;28;20425;-78
2023/07/06 02:24:16;;;;;;;20.90;11.80;;;;;;;;;;5072628;28;20423;-78
2023/07/06 02:26:42;;;;;;;19.23;11.40;;;12.00;99.90;;;;;;5073005;28;20485;-78
2023/07/06 02:29:07;;;;;;;19.45;11.10;;;11.90;99.90;;;;;;5073437;28;20403;-78
2023/07/06 02:31:34;;;;;;;22.97;12.00;;;12.00;99.90;;;;;;5057951;28;20403;-78
2023/07/06 02:34:01;;;;;;;18.40;11.38;;;;;;;;;;5059974;28;20421;-78
2023/07/06 02:36:27;;;;;;;18.05;11.63;;;;;;;;;;5085787;28;20427;-78
2023/07/06 02:38:53;;;;;;;20.03;11.67;;;11.90;99.90;;;;;;5073215;28;20482;-78
2023/07/06 02:41:19;;;;;;;18.73;11.40;;;11.90;99.90;;;;;;5055717;28;20478;-78
2023/07/06 02:43:45;;;;;;;20.45;11.52;;;11.90;99.90;;;;;;5056882;28;20476;-78
2023/07/06 02:46:17;;;;;;;19.60;11.35;;;11.60;99.90;;;;;;5056733;28;20506;-78
2023/07/06 02:48:43;;;;;;;18.17;12.10;;;11.80;99.90;;;;;;5056960;28;20736;-78
2023/07/06 02:51:09;;;;;;;21.87;10.90;;;;;;;;;;5058899;28;20421;-78
2023/07/06 02:53:34;;;;;;;22.55;11.55;;;11.90;99.90;;;;;;5057726;28;20419;-78
2023/07/06 02:56:00;;;;;;;17.50;11.70;;;;;;;;;;5056416;28;20395;-78
2023/07/06 02:58:27;;;;;;;19.67;12.05;;;11.80;99.90;;;;;;5089061;28;20757;-78
2023/07/06 03:00:54;;;;;;;20.17;11.63;;;;;;;;;;5088577;28;20471;-78
2023/07/06 03:03:23;;;;;;;20.70;11.88;;;;;;;;;;5077632;28;20515;-78
2023/07/06 03:05:49;;;;;;;20.90;11.27;;;;;;;;;;5072693;28;20818;-78
2023/07/06 03:08:15;;;;;;;20.00;11.98;;;;;;;;;;5055955;28;20454;-78
2023/07/06 03:10:46;;;;;;;20.35;11.60;;;12.00;99.90;;;;;;5072417;28;20422;-78
2023/07/06 03:13:13;;;;;;;23.00;12.00;;;11.80;99.90;;;;;;5066376;28;20506;-78
2023/07/06 03:15:41;;;;;;;22.17;11.38;;;;;;;;;;5074557;28;20449;-78
2023/07/06 03:18:08;;;;;;;15.27;10.43;;;12.00;99.90;;;;;;5092763;28;20969;-78
2023/07/06 03:20:37;;;;;;;17.33;10.68;;;12.20;99.90;;;;;;5068013;28;20433;-78
2023/07/06 03:23:03;;;;;;;15.73;10.80;;;12.10;99.90;;;;;;5071247;28;20424;-78
2023/07/06 03:25:30;;;;;;;18.58;10.27;;;;;;;;;;5055777;28;20445;-79
2023/07/06 03:27:56;;;;;;;16.87;10.13;;;11.80;99.90;;;;;;5072601;28;20523;-79
2023/07/06 03:30:25;;;;;;;17.25;10.38;;;11.80;99.90;;;;;;5063837;28;20511;-79
2023/07/06 03:32:54;;;;;;;17.73;10.55;;;12.20;99.90;;;;;;5088337;28;20498;-78
2023/07/06 03:35:22;;;;;;;18.30;10.25;;;;;;;;;;5077875;28;20513;-78
2023/07/06 03:37:48;;;;;;;19.27;10.77;;;;;;;;;;5083928;28;20431;-78
2023/07/06 03:40:14;;;;;;;17.40;10.57;;;;;;;;;;5072420;28;20772;-77
2023/07/06 03:42:43;;;;;;;17.92;10.20;;;12.00;99.90;;;;;;5055507;28;20923;-77
2023/07/06 03:45:11;;;;;;;17.15;9.63;;;12.30;99.90;;;;;;5072041;28;20414;-77
2023/07/06 03:47:38;;;;;;;17.25;10.00;;;;;;;;;;5072140;28;20423;-78
2023/07/06 03:50:04;;;;;;;18.75;10.30;;;;;;;;;;5073464;28;20427;-78
2023/07/06 03:52:30;;;;;;;18.45;9.85;;;12.40;99.90;;;;;;5072006;28;20993;-77
2023/07/06 03:54:59;;;;;;;15.70;9.95;;;;;;;;;;5038517;28;20420;-77
2023/07/06 03:57:27;;;;;;;18.58;9.82;;;;;;;;;;5072137;28;20403;-77
2023/07/06 03:59:52;;;;;;;18.02;9.88;;;12.40;99.90;;;;;;5055029;28;20400;-77
2023/07/06 04:02:20;;;;;;;14.75;9.88;;;12.50;99.90;;;;;;5058739;28;20535;-77
2023/07/06 04:04:46;;;;;;;17.10;10.23;;;12.40;99.90;;;;;;5083039;28;20514;-77
2023/07/06 04:07:12;;;;;;;18.00;10.07;;;;;;;;;;5070323;28;20428;-77
2023/07/06 04:09:39;;;;;;;19.60;10.25;;;;;;;;;;5071638;28;20437;-77
2023/07/06 04:12:07;;;;;;;16.73;10.43;;;12.50;99.90;;;;;;5075939;28;20422;-76
2023/07/06 04:14:34;;;;;;;18.50;10.30;;;12.50;99.90;;;;;;5056216;28;20417;-78
2023/07/06 04:16:59;;;;;;;18.88;10.50;;;12.40;99.90;;;;;;5057393;28;20420;-77
2023/07/06 04:19:25;;;;;;;19.13;11.40;;;12.50;99.90;;;;;;5057999;28;20840;-77
2023/07/06 04:21:52;;;;;;;19.70;11.10;;;12.30;99.90;;;;;;5054827;28;20419;-77
2023/07/06 04:24:18;;;;;;;18.52;10.93;;;12.50;99.90;;;;;;5078925;28;20416;-76
2023/07/06 04:26:47;;;;;;;18.48;10.95;;;12.60;99.90;;;;;;5071484;28;20404;-77
2023/07/06 04:29:14;;;;;;;19.15;11.40;;;12.40;99.90;;;;;;5087444;28;20445;-77
2023/07/06 04:31:40;;;;;;;19.67;11.00;;;12.20;99.90;;;;;;5069996;28;20423;-77
2023/07/06 04:34:07;;;;;;;19.65;11.10;;;;;;;;;;5054433;28;20430;-77
2023/07/06 04:36:33;;;;;;;23.98;11.85;;;;;;;;;;5059966;28;20471;-78
2023/07/06 04:39:00;;;;;;;21.30;11.52;;;;;;;;;;5066544;28;20414;-77
2023/07/06 04:41:27;;;;;;;20.95;12.10;;;12.50;99.90;;;;;;5083780;28;20502;-78
2023/07/06 04:43:53;;;;;;;23.20;12.07;;;;;;;;;;5087515;28;20929;-78
2023/07/06 04:46:23;;;;;;;24.02;12.82;;;;;;;;;;5091139;28;20406;-77
2023/07/06 04:48:49;;;;;;;24.92;13.00;;;12.40;99.90;;;;;;5073672;28;20405;-77
2023/07/06 04:51:15;;;;;;;22.77;12.67;;;12.50;99.90;;;;;;5085918;28;20422;-77
2023/07/06 04:53:42;;;;;;;24.35;13.70;;;;;;;;;;5080094;28;20424;-77
2023/07/06 04:56:08;;;;;;;20.58;13.25;;;12.50;99.90;;;;;;5077044;28;20411;-78
2023/07/06 04:58:34;;;;;;;29.83;13.83;;;;;;;;;;5069389;28;20905;-78
2023/07/06 05:01:06;;;;;;;23.47;13.57;;;;;;;;;;5069440;28;20427;-77
2023/07/06 05:03:32;;;;;;;27.57;13.00;;;12.50;99.90;;;;;;5070362;28;20438;-77
2023/07/06 05:06:04;;;;;;;24.15;13.60;;;;;;;;;;5041511;28;20422;-77
2023/07/06 05:08:31;;;;;;;26.03;13.20;;;;;;;;;;5075318;28;20557;-76
2023/07/06 05:10:57;;;;;;;30.17;12.93;;;;;;;;;;5061369;28;20424;-77
2023/07/06 05:13:24;;;;;;;29.20;14.05;;;;;;;;;;5070640;28;20419;-77
2023/07/06 05:15:51;;;;;;;24.88;13.20;;;12.90;99.90;;;;;;5070768;28;20415;-77
2023/07/06 05:18:19;;;;;;;23.48;13.40;;;12.90;99.90;;;;;;5059769;28;20421;-78
2023/07/06 05:20:48;;;;;;;23.20;13.65;;;12.80;99.90;;;;;;5054305;28;20423;-77
2023/07/06 05:23:14;;;;;;;23.58;13.45;;;;;;;;;;5070228;28;20432;-78
2023/07/06 05:25:41;;;;;;;29.05;13.68;;;;;;;;;;5075870;28;20983;-76
2023/07/06 05:28:10;;;;;;;23.83;13.05;;;;;;;;;;5069114;28;21425;-77
2023/07/06 05:30:39;;;;;;;24.05;13.10;;;13.00;99.90;;;;;;5070984;28;20427;-77
2023/07/06 05:33:06;;;;;;;23.60;13.55;;;13.20;99.90;;;;;;5076378;28;20937;-77
2023/07/06 05:35:32;;;;;;;24.58;12.90;;;13.10;99.90;;;;;;5085625;28;20467;-76
2023/07/06 05:38:00;;;;;;;22.17;12.63;;;13.10;99.90;;;;;;5052477;28;20415;-77
2023/07/06 05:40:26;;;;;;;25.83;12.40;;;;;;;;;;5082022;28;20765;-78
2023/07/06 05:42:54;;;;;;;20.95;12.38;;;;;;;;;;5087962;28;20566;-77
2023/07/06 05:45:20;;;;;;;22.02;11.95;;;;;;;;;;5060382;28;20768;-77
2023/07/06 05:47:46;;;;;;;24.50;12.25;;;13.80;99.90;;;;;;5079940;28;20424;-77
2023/07/06 05:50:12;;;;;;;22.67;11.47;;;13.80;99.90;;;;;;5061081;28;20506;-77
2023/07/06 05:52:40;;;;;;;23.00;11.55;;;13.90;99.90;;;;;;5067191;28;20505;-76
2023/07/06 05:55:06;;;;;;;20.98;11.40;;;;;;;;;;5071769;28;20430;-77
2023/07/06 05:57:32;;;;;;;21.38;11.38;;;13.90;99.90;;;;;;5073457;28;20911;-77
2023/07/06 05:59:58;;;;;;;20.80;11.00;;;;;;;;;;5055322;28;20421;-78
2023/07/06 06:02:26;;;;;;;22.55;11.32;;;;;;;;;;5076514;28;20454;-77
2023/07/06 06:04:52;;;;;;;24.75;11.30;;;;;;;;;;5073428;28;20937;-78
2023/07/06 06:07:19;;;;;;;17.98;10.77;;;;;;;;;;5071840;28;20471;-78
2023/07/06 06:09:47;;;;;;;21.45;10.80;;;14.50;99.90;;;;;;5067042;28;20505;-77
2023/07/06 06:12:18;;;;;;;22.67;11.05;;;14.80;99.90;;;;;;5057236;28;20415;-78
2023/07/06 06:14:45;;;;;;;22.27;10.88;;;;;;;;;;5079748;28;20415;-78
2023/07/06 06:17:11;;;;;;;23.85;10.50;;;15.00;99.90;;;;;;5075692;28;20515;-78
2023/07/06 06:19:37;;;;;;;19.38;10.52;;;15.10;99.90;;;;;;5079918;28;20498;-78
2023/07/06 06:22:09;;;;;;;20.25;10.55;;;15.20;99.90;;;;;;5056135;28;20421;-78
2023/07/06 06:24:35;;;;;;;22.48;11.13;;;15.40;99.90;;;;;;5074371;28;20434;-78
2023/07/06 06:27:01;;;;;;;21.52;11.10;;;;;;;;;;5075810;28;20430;-79
2023/07/06 06:29:28;;;;;;;21.00;11.10;;;;;;;;;;5060136;28;20427;-78
2023/07/06 06:31:54;;;;;;;20.00;10.38;;;15.70;99.90;;;;;;5056903;28;20424;-78
2023/07/06 06:34:20;;;;;;;23.08;11.10;;;;;;;;;;5056097;28;20450;-77
2023/07/06 06:36:47;;;;;;;21.17;10.43;;;16.10;99.90;;;;;;5057999;28;20756;-78
2023/07/06 06:39:13;;;;;;;17.95;9.70;;;;;;;;;;5081974;28;20414;-78
2023/07/06 06:41:39;;;;;;;22.02;9.20;;;16.30;99.90;;;;;;5059962;28;20415;-78
2023/07/06 06:44:05;;;;;;;18.27;9.32;;;16.40;99.90;;;;;;5082770;28;20423;-78
2023/07/06 06:46:31;;;;;;;19.20;8.68;;;16.50;99.90;;;;;;5057846;28;20430;-78
2023/07/06 06:48:57;;;;;;;19.90;8.82;;;16.40;99.90;;;;;;5074143;28;20436;-79
2023/07/06 06:51:24;;;;;;;17.75;8.52;;;16.50;99.90;;;;;;5056804;28;20430;-78
2023/07/06 06:53:53;;;;;;;18.27;8.63;;;16.50;99.90;;;;;;5081435;28;20419;-78
2023/07/06 06:56:19;;;;;;;16.87;8.13;;;16.70;99.90;;;;;;5090878;28;20497;-78
2023/07/06 06:58:46;;;;;;;16.73;7.80;;;16.90;99.90;;;;;;5073602;28;20497;-79
2023/07/06 07:01:13;;;;;;;17.77;7.90;;;16.90;99.90;;;;;;5052243;28;20887;-76
2023/07/06 07:03:39;;;;;;;19.30;8.50;;;17.20;99.90;;;;;;5081883;28;20480;-76
2023/07/06 07:06:13;;;;;;;18.48;7.53;;;17.30;99.90;;;;;;5083042;28;20431;-77
2023/07/06 07:08:39;;;;;;;16.23;7.53;;;17.40;99.90;;;;;;5062035;28;20418;-78
2023/07/06 07:11:06;;;;;;;17.70;8.23;;;17.50;99.90;;;;;;5083146;28;20422;-78
2023/07/06 07:13:35;;;;;;;14.02;7.57;;;17.50;99.90;;;;;;5058930;28;20481;-78
2023/07/06 07:16:02;;;;;;;16.13;7.97;;;16.40;99.90;;;;;;5062094;28;20814;-78
2023/07/06 07:18:28;;;;;;;17.40;7.55;;;17.50;99.90;;;;;;5073819;28;20414;-76
2023/07/06 07:20:54;;;;;;;14.85;7.47;;;17.50;99.90;;;;;;5082435;28;20556;-77
2023/07/06 07:23:25;;;;;;;16.95;7.13;;;17.90;99.90;;;;;;5072941;28;20426;-78
2023/07/06 07:25:51;;;;;;;14.63;6.50;;;17.60;99.90;;;;;;5075369;28;20426;-77
2023/07/06 07:28:18;;;;;;;12.45;6.10;;;18.10;99.90;;;;;;5057734;28;20466;-77
2023/07/06 07:30:54;;;;;;;16.20;6.95;;;18.10;99.90;;;;;;5077335;28;20429;-77
2023/07/06 07:33:20;;;;;;;13.05;6.38;;;18.00;99.90;;;;;;5071031;28;20436;-77
2023/07/06 07:35:46;;;;;;;12.18;5.80;;;18.00;99.90;;;;;;5092310;28;20421;-77
2023/07/06 07:38:12;;;;;;;13.05;6.18;;;18.20;99.90;;;;;;5064603;28;20500;-77
2023/07/06 07:40:38;;;;;;;12.82;5.88;;;18.20;99.90;;;;;;5058298;28;20447;-77
2023/07/06 07:43:04;;;;;;;13.27;5.60;;;18.20;99.90;;;;;;5076743;28;21221;-77
2023/07/06 07:45:29;;;;;;;10.93;5.53;;;18.50;99.90;;;;;;5074965;28;20508;-77
2023/07/06 07:47:56;;;;;;;12.73;5.20;;;19.00;99.90;;;;;;5049080;28;20440;-77
2023/07/06 07:50:21;;;;;;;12.70;5.10;;;18.70;99.90;;;;;;5051737;28;20437;-78
2023/07/06 07:52:48;;;;;;;11.73;4.35;;;19.00;99.90;;;;;;5076805;28;20485;-78
2023/07/06 07:55:14;;;;;;;13.10;4.72;;;19.10;99.90;;;;;;5087114;28;20413;-77
2023/07/06 07:57:40;;;;;;;10.35;4.47;;;19.10;99.90;;;;;;5078591;28;20506;-79
2023/07/06 08:00:09;;;;;;;8.27;4.33;;;19.40;99.90;;;;;;5076343;28;20502;-78
2023/07/06 08:02:35;;;;;;;12.00;4.75;;;19.20;99.90;;;;;;5057055;28;20426;-77
2023/07/06 08:05:04;;;;;;;15.30;4.95;;;19.50;99.90;;;;;;5081670;28;20506;-77
2023/07/06 08:07:31;;;;;;;8.32;4.20;;;19.80;99.90;;;;;;5075140;28;20894;-77
2023/07/06 08:09:57;;;;;;;9.33;4.60;;;19.60;99.90;;;;;;5077061;28;21170;-77
2023/07/06 08:12:23;;;;;;;10.50;3.50;;;19.60;99.90;;;;;;5077214;28;20510;-80
2023/07/06 08:14:49;;;;;;;9.48;3.63;;;19.80;99.90;;;;;;5056355;28;20513;-78
2023/07/06 08:17:17;;;;;;;10.13;3.30;;;20.20;99.90;;;;;;5066045;28;20537;-78
2023/07/06 08:19:45;;;;;;;8.00;3.22;;;20.30;99.90;;;;;;5072040;28;20423;-78
2023/07/06 08:22:11;;;;;;;8.88;4.10;;;20.80;99.90;;;;;;5055992;28;20421;-81
2023/07/06 08:24:38;;;;;;;8.63;2.88;;;20.20;99.90;;;;;;5047806;28;20420;-79
2023/07/06 08:27:04;;;;;;;6.68;2.53;;;20.40;99.90;;;;;;5074019;28;20422;-78
2023/07/06 08:29:31;;;;;;;7.30;2.42;;;20.20;99.90;;;;;;5041393;28;20431;-78
2023/07/06 08:31:58;;;;;;;7.97;2.40;;;20.20;99.90;;;;;;5059811;28;20481;-78
2023/07/06 08:34:26;;;;;;;6.60;2.70;;;20.10;99.90;;;;;;5054072;28;20467;-78
2023/07/06 08:36:53;;;;;;;4.30;1.83;;;20.20;99.90;;;;;;5075159;28;20434;-78
2023/07/06 08:39:19;;;;;;;7.22;2.05;;;20.30;99.90;;;;;;5055763;28;20416;-78
2023/07/06 08:41:47;;;;;;;4.55;1.90;;;20.40;99.90;;;;;;5044005;28;20414;-78
2023/07/06 08:44:15;;;;;;;4.60;2.00;;;19.90;99.90;;;;;;5057366;28;20437;-78
2023/07/06 08:46:48;;;;;;;6.90;2.70;;;19.90;99.90;;;;;;5070013;28;20417;-79
2023/07/06 08:49:25;;;;;;;5.87;2.80;;;19.70;99.90;;;;;;5071085;28;20439;-78
2023/07/06 08:51:53;;;;;;;7.65;2.60;;;19.90;99.90;;;;;;5077219;28;21425;-77
2023/07/06 08:54:24;;;;;;;8.38;2.78;;;20.00;99.90;;;;;;5066617;28;20435;-78
2023/07/06 08:56:51;;;;;;;8.10;2.22;;;20.60;99.90;;;;;;5073923;28;20439;-78
2023/07/06 08:59:48;;;;;;;6.18;1.80;;;20.70;99.90;;;;;;5073245;28;20415;-78
2023/07/06 09:02:26;;;;;;;6.55;2.20;;;21.00;99.90;;;;;;5071849;28;20420;-78
2023/07/06 09:04:53;;;;;;;5.63;1.90;;;20.90;99.90;;;;;;5054837;28;20434;-78
2023/07/06 09:07:34;;;;;;;5.43;1.80;;;20.60;99.90;;;;;;5073860;28;20505;-78
2023/07/06 09:10:04;;;;;;;4.88;2.25;;;20.40;99.90;;;;;;5076454;28;20424;-78
2023/07/06 09:12:32;;;;;;;5.30;1.98;;;20.30;99.90;;;;;;5077591;28;20465;-78
2023/07/06 09:15:00;;;;;;;5.20;2.20;;;20.10;99.90;;;;;;5058631;28;20439;-79
2023/07/06 09:17:27;;;;;;;9.02;2.35;;;20.00;99.90;;;;;;5076193;28;20431;-78
2023/07/06 09:19:53;;;;;;;6.78;2.05;;;20.20;99.90;;;;;;5059872;28;20500;-78
2023/07/06 09:22:22;;;;;;;4.37;1.83;;;20.10;99.90;;;;;;5088589;28;20401;-79
2023/07/06 09:24:49;;;;;;;6.00;2.22;;;20.20;99.90;;;;;;5068230;28;20942;-78
2023/07/06 09:27:28;;;;;;;4.82;2.10;;;19.90;99.90;;;;;;5053131;28;20431;-79
2023/07/06 09:30:01;;;;;;;5.43;2.25;;;20.10;99.90;;;;;;5060557;28;20494;-79
2023/07/06 09:32:29;;;;;;;5.38;1.98;;;19.70;99.90;;;;;;5072207;28;21064;-79
2023/07/06 09:35:03;;;;;;;4.03;1.93;;;19.90;99.90;;;;;;5056087;28;20681;-78
2023/07/06 09:37:29;;;;;;;5.05;1.80;;;19.80;99.90;;;;;;5065007;28;20445;-78
2023/07/06 09:40:09;;;;;;;4.03;1.50;;;20.10;99.90;;;;;;5073460;28;20470;-79
2023/07/06 09:42:34;;;;;;;5.45;1.88;;;19.80;99.90;;;;;;5080959;28;20505;-79
2023/07/06 09:45:02;;;;;;;4.53;1.80;;;19.80;99.90;;;;;;5042683;28;20423;-78
2023/07/06 09:47:30;;;;;;;5.30;1.50;;;19.90;99.90;;;;;;5059596;28;20918;-78
2023/07/06 09:50:04;;;;;;;4.50;1.60;;;20.10;99.90;;;;;;5059556;28;20417;-79
2023/07/06 09:52:33;;;;;;;4.23;2.27;;;20.40;99.90;;;;;;5079387;28;20427;-79
2023/07/06 09:55:19;;;;;;;3.65;1.48;;;20.70;99.90;;;;;;5070213;28;20477;-79
2023/07/06 09:57:48;;;;;;;3.67;1.65;;;21.00;99.90;;;;;;5075712;28;20490;-79
2023/07/06 10:00:18;;;;;;;2.60;1.20;;;20.80;99.90;;;;;;5057268;28;20425;-78
2023/07/06 10:02:53;;;;;;;4.18;1.48;;;20.90;99.90;;;;;;5075994;28;20429;-79
2023/07/06 10:05:42;;;;;;;3.92;1.42;;;20.80;99.90;;;;;;5077872;28;20422;-78
2023/07/06 10:08:14;;;;;;;3.70;1.60;;;21.00;99.90;;;;;;5071627;28;20934;-79
2023/07/06 10:11:12;;;;;;;3.17;1.53;;;21.00;99.90;;;;;;5073154;28;20432;-79
2023/07/06 10:13:40;;;;;;;2.78;1.30;;;20.90;99.90;;;;;;5083741;28;20451;-79
2023/07/06 10:16:18;;;;;;;4.00;1.92;;;20.90;99.90;;;;;;5086031;28;20434;-79
2023/07/06 10:19:01;;;;;;;3.55;1.60;;;20.80;99.90;;;;;;5075513;28;20458;-79
2023/07/06 10:21:43;;;;;;;5.23;1.30;;;21.00;99.90;;;;;;5089627;28;20465;-79
2023/07/06 10:24:24;;;;;;;5.10;1.52;;;21.20;99.90;;;;;;5087835;28;20492;-80
2023/07/06 10:26:55;;;;;;;3.17;1.30;;;21.30;99.90;;;;;;5078344;28;20484;-79
2023/07/06 10:29:37;;;;;;;4.18;1.70;;;20.80;99.90;;;;;;5078659;28;20419;-79
2023/07/06 10:32:09;;;;;;;5.30;1.70;;;21.10;99.90;;;;;;5068430;28;20418;-79
2023/07/06 10:34:43;;;;;;;4.25;1.90;;;21.30;99.90;;;;;;5069543;28;20427;-79
2023/07/06 10:37:13;;;;;;;9.88;1.60;;;21.00;99.90;;;;;;5070165;28;20436;-76
2023/07/06 10:39:45;;;;;;;5.30;1.98;;;21.30;99.90;;;;;;5075154;28;20735;-76
2023/07/06 10:42:25;;;;;;;4.45;1.55;;;21.10;99.90;;;;;;5058180;28;22081;-77
2023/07/06 10:44:58;;;;;;;3.85;1.63;;;21.20;99.90;;;;;;5073988;28;20414;-76
2023/07/06 10:47:41;;;;;;;6.77;1.87;;;21.10;99.90;;;;;;5060657;28;20419;-77
2023/07/06 10:50:07;;;;;;;5.15;1.88;;;21.30;99.90;;;;;;5090977;28;20432;-77
2023/07/06 10:52:37;;;;;;;4.50;1.70;;;21.60;99.90;;;;;;5088996;28;20410;-78
2023/07/06 10:55:23;;;;;;;3.73;1.60;;;21.50;99.90;;;;;;5084674;28;20420;-77
2023/07/06 10:57:53;;;;;;;6.10;1.90;;;21.40;99.90;;;;;;5072258;28;20415;-76
2023/07/06 11:00:29;;;;;;;4.13;1.90;;;21.40;99.90;;;;;;5058902;28;20444;-78
2023/07/06 11:02:56;;;;;;;5.95;1.83;;;21.10;99.90;;;;;;5052871;28;20423;-77
2023/07/06 11:05:32;;;;;;;7.18;2.10;;;21.00;99.90;;;;;;5062767;28;20504;-78
2023/07/06 11:08:05;;;;;;;5.25;1.70;;;21.00;99.90;;;;;;5077671;28;20454;-78
2023/07/06 11:10:39;;;;;;;5.70;1.75;;;21.00;99.90;;;;;;5078842;28;20875;-77
2023/07/06 11:13:05;;;;;;;2.83;1.50;;;21.20;99.90;;;;;;5101210;28;22335;-77
2023/07/06 11:15:43;;;;;;;3.90;1.80;;;21.10;99.90;;;;;;5086736;28;20448;-78
2023/07/06 11:18:32;;;;;;;5.88;1.85;;;20.70;99.90;;;;;;5078085;28;20414;-78
2023/07/06 11:21:18;;;;;;;3.15;1.73;;;21.10;99.90;;;;;;5061264;28;20418;-79
2023/07/06 11:23:45;;;;;;;5.47;2.17;;;21.10;99.90;;;;;;5074722;28;20431;-78
2023/07/06 11:26:48;;;;;;;5.15;2.10;;;21.20;99.90;;;;;;5102182;28;20495;-78
2023/07/06 11:29:18;;;;;;;6.25;2.15;;;21.50;99.90;;;;;;5071412;28;20431;-77
2023/07/06 11:32:18;;;;;;;5.17;2.27;;;21.40;99.90;;;;;;5075334;28;20770;-78
2023/07/06 11:35:04;;;;;;;5.82;2.22;;;21.60;99.90;;;;;;5075936;28;20426;-78
2023/07/06 11:37:54;;;;;;;3.70;1.77;;;21.80;99.90;;;;;;5063917;28;20923;-77
2023/07/06 11:40:31;;;;;;;4.90;1.80;;;22.10;99.90;;;;;;5082698;28;20416;-78
2023/07/06 11:43:24;;;;;;;4.07;1.77;;;22.10;99.90;;;;;;5110092;28;20397;-78
2023/07/06 11:45:59;;;;;;;2.95;1.50;;;22.30;99.90;;;;;;5076139;28;20560;-78
2023/07/06 11:48:44;;;;;;;4.38;1.90;;;22.50;99.90;;;;;;5077748;28;20442;-78
2023/07/06 11:51:10;;;;;;;4.30;1.53;;;22.70;99.90;;;;;;5062685;28;20427;-78
2023/07/06 11:56:20;;;;;;;3.00;1.60;;;22.80;99.90;;;;;;5065218;28;20514;-77
2023/07/06 11:59:01;;;;;;;5.47;1.50;;;22.70;99.90;;;;;;5087509;28;20426;-78
2023/07/06 12:01:33;;;;;;;2.80;1.50;;;22.20;99.90;;;;;;5062461;28;20476;-77
2023/07/06 12:04:02;;;;;;;3.28;1.45;;;22.10;99.90;;;;;;5057963;28;20789;-78
2023/07/06 12:06:30;;;;;;;4.97;1.52;;;21.80;99.90;;;;;;5082526;28;20552;-78
2023/07/06 12:09:01;;;;;;;5.35;1.70;;;21.60;99.90;;;;;;5069028;28;20420;-77
2023/07/06 12:11:27;;;;;;;3.50;1.58;;;21.70;99.90;;;;;;5081671;28;20421;-77
2023/07/06 12:13:55;;;;;;;3.23;1.43;;;21.30;99.90;;;;;;5055812;28;20422;-77
2023/07/06 12:16:39;;;;;;;4.20;1.43;;;21.70;99.90;;;;;;5072016;28;20423;-77
2023/07/06 12:19:18;;;;;;;4.13;1.45;;;22.00;99.90;;;;;;5054964;28;20426;-77
2023/07/06 12:21:52;;;;;;;5.20;1.60;;;22.30;99.90;;;;;;5072140;28;21002;-76
2023/07/06 12:24:22;;;;;;;3.40;1.13;;;23.00;99.40;;;;;;5071446;28;20430;-77
2023/07/06 12:26:51;;;;;;;4.63;1.50;;;22.90;98.50;;;;;;5078394;28;20430;-78
2023/07/06 12:29:23;;;;;;;4.03;1.67;;;23.20;99.40;;;;;;5089724;28;20411;-78
2023/07/06 12:31:51;;;;;;;4.23;1.50;;;22.90;98.90;;;;;;5072910;28;20415;-77
2023/07/06 12:34:20;;;;;;;7.82;1.80;;;22.80;99.20;;;;;;5075230;28;20490;-77
2023/07/06 12:36:51;;;;;;;4.63;1.80;;;22.90;99.70;;;;;;5091533;28;20447;-78
2023/07/06 12:39:19;;;;;;;3.42;1.30;;;22.90;99.90;;;;;;5061044;28;20900;-78
2023/07/06 12:41:46;;;;;;;3.55;1.40;;;23.30;99.50;;;;;;5071743;28;20435;-77
2023/07/06 12:44:17;;;;;;;3.92;1.55;;;23.30;98.00;;;;;;5077475;28;20418;-77
2023/07/06 12:46:56;;;;;;;3.67;1.50;;;23.40;96.70;;;;;;5072929;28;20589;-78
2023/07/06 12:49:23;;;;;;;3.42;1.70;;;23.60;97.40;;;;;;5077755;28;20418;-77
2023/07/06 12:51:57;;;;;;;4.25;1.70;;;23.50;98.00;;;;;;5062240;28;20413;-77
2023/07/06 12:54:25;;;;;;;4.43;1.83;;;23.40;98.00;;;;;;5090928;28;20421;-77
2023/07/06 12:57:15;;;;;;;5.43;1.95;;;22.90;99.10;;;;;;5072460;28;20507;-76
2023/07/06 12:59:41;;;;;;;4.85;1.90;;;22.80;99.70;;;;;;5070113;28;20415;-76
2023/07/06 13:02:19;;;;;;;4.23;1.90;;;22.60;99.90;;;;;;5056585;28;20980;-76
2023/07/06 13:04:47;;;;;;;4.20;1.73;;;22.50;99.90;;;;;;5056577;28;20538;-77
2023/07/06 13:07:20;;;;;;;4.95;2.20;;;22.80;99.90;;;;;;5052500;28;20465;-77
2023/07/06 13:09:47;;;;;;;5.87;1.67;;;22.80;99.90;;;;;;5061814;28;20420;-77
2023/07/06 13:12:21;;;;;;;5.07;1.70;;;22.90;99.90;;;;;;5077502;28;20409;-77
2023/07/06 13:14:48;;;;;;;3.50;1.60;;;23.30;99.50;;;;;;5085411;28;20420;-77
2023/07/06 13:17:16;;;;;;;3.28;1.30;;;23.60;97.10;;;;;;5057784;28;20419;-77